createdAt,value
2022-11-03T00:00:28.976Z,98
2022-11-03T00:05:18.259Z,98
2022-11-03T00:10:24.521Z,98
2022-11-03T00:15:30.393Z,98
2022-11-03T00:20:19.486Z,98
2022-11-03T00:25:25.479Z,98
2022-11-03T00:30:31.750Z,98
2022-11-03T00:35:20.601Z,98
2022-11-03T00:40:26.638Z,98
2022-11-03T00:45:32.329Z,98
2022-11-03T00:50:21.382Z,98
2022-11-03T00:55:27.414Z,98
2022-11-03T01:00:16.674Z,98
2022-11-03T01:05:22.103Z,98
2022-11-03T01:10:28.160Z,98
2022-11-03T01:15:16.893Z,98
2022-11-03T01:20:23.004Z,98
2022-11-03T01:25:29.101Z,98
2022-11-03T01:30:18.086Z,98
2022-11-03T01:35:24.203Z,98
2022-11-03T01:40:30.416Z,98
2022-11-03T01:45:18.993Z,98
2022-11-03T01:50:25.052Z,98
2022-11-03T01:55:31.114Z,98
2022-11-03T02:00:20.492Z,98
2022-11-03T02:05:25.562Z,98
2022-11-03T02:10:31.738Z,98
2022-11-03T02:15:20.589Z,98
2022-11-03T02:20:26.706Z,98
2022-11-03T02:25:16.591Z,98
2022-11-03T02:30:21.863Z,98
2022-11-03T02:35:27.935Z,98
2022-11-03T02:40:16.896Z,98
2022-11-03T02:45:22.704Z,98
2022-11-03T02:50:28.790Z,98
2022-11-03T02:55:17.742Z,98
2022-11-03T03:00:23.929Z,98
2022-11-03T03:05:29.992Z,98
2022-11-03T03:10:18.978Z,98
2022-11-03T03:15:25.279Z,98
2022-11-03T03:20:31.341Z,98
2022-11-03T03:25:20.177Z,98
2022-11-03T03:30:26.244Z,98
2022-11-03T03:35:32.322Z,98
2022-11-03T03:40:21.641Z,98
2022-11-03T03:45:27.173Z,98
2022-11-03T03:50:16.165Z,98
2022-11-03T03:55:22.249Z,98
2022-11-03T04:00:28.505Z,98
2022-11-03T04:05:16.612Z,98
2022-11-03T04:10:22.716Z,98
2022-11-03T04:15:28.989Z,98
2022-11-03T04:20:17.939Z,98
2022-11-03T04:25:23.878Z,98
2022-11-03T04:30:29.975Z,98
2022-11-03T04:35:18.997Z,98
2022-11-03T04:40:25.157Z,98
2022-11-03T04:45:30.979Z,98
2022-11-03T04:50:19.829Z,98
2022-11-03T04:55:25.878Z,98
2022-11-03T05:00:32.180Z,98
2022-11-03T05:05:21.277Z,98
2022-11-03T05:10:27.328Z,98
2022-11-03T05:15:16.368Z,98
2022-11-03T05:20:22.740Z,98
2022-11-03T05:25:28.481Z,98
2022-11-03T05:30:17.527Z,98
2022-11-03T05:35:24.382Z,98
2022-11-03T05:40:29.971Z,98
2022-11-03T05:45:18.359Z,98
2022-11-03T05:50:24.433Z,98
2022-11-03T05:55:30.491Z,98
2022-11-03T06:00:19.613Z,98
2022-11-03T06:05:25.089Z,98
2022-11-03T06:10:30.905Z,98
2022-11-03T06:15:19.961Z,98
2022-11-03T06:20:26.163Z,98
2022-11-03T06:25:32.073Z,98
2022-11-03T06:30:21.138Z,98
2022-11-03T06:35:27.246Z,98
2022-11-03T06:40:16.344Z,98
2022-11-03T06:45:22.021Z,98
2022-11-03T06:50:28.186Z,98
2022-11-03T06:55:17.341Z,98
2022-11-03T07:00:40.362Z,98
2022-11-03T07:05:29.435Z,98
2022-11-03T07:10:18.484Z,98
2022-11-03T07:15:24.544Z,98
2022-11-03T07:20:30.841Z,98
2022-11-03T07:25:19.665Z,98
2022-11-03T07:30:25.703Z,98
2022-11-03T07:35:53.366Z,97
2022-11-03T07:40:20.828Z,97
2022-11-03T07:45:26.721Z,97
2022-11-03T07:50:15.861Z,96
2022-11-03T07:55:21.723Z,96
2022-11-03T08:00:27.841Z,95
2022-11-03T08:05:17.143Z,95
2022-11-03T08:10:23.229Z,94
2022-11-03T08:15:29.299Z,93
2022-11-03T08:20:18.374Z,91
2022-11-03T08:30:30.502Z,89
2022-11-03T08:35:19.478Z,89
2022-11-03T08:40:25.778Z,87
2022-11-03T08:45:32.347Z,83
2022-11-03T08:50:20.452Z,83
2022-11-03T08:55:26.511Z,85
2022-11-03T09:00:35.916Z,85
2022-11-03T09:05:20.864Z,83
2022-11-03T09:10:33.245Z,84
2022-11-03T09:15:15.981Z,84
2022-11-03T09:20:22.199Z,85
2022-11-03T09:25:28.107Z,85
2022-11-03T09:30:26.068Z,85
2022-11-03T09:35:23.256Z,84
2022-11-03T09:40:29.296Z,83
2022-11-03T09:45:18.016Z,83
2022-11-03T09:50:24.216Z,83
2022-11-03T09:55:30.158Z,82
2022-11-03T10:00:19.355Z,81
2022-11-03T10:05:24.601Z,81
2022-11-03T10:10:30.675Z,80
2022-11-03T10:15:19.755Z,79
2022-11-03T10:20:25.788Z,79
2022-11-03T10:25:31.802Z,76
2022-11-03T10:30:20.907Z,75
2022-11-03T10:35:26.948Z,75
2022-11-03T10:40:42.017Z,74
2022-11-03T10:45:21.760Z,74
2022-11-03T10:50:27.842Z,74
2022-11-03T10:55:20.544Z,73
2022-11-03T11:00:22.957Z,72
2022-11-03T11:05:29.285Z,70
2022-11-03T11:10:18.265Z,69
2022-11-03T11:15:24.361Z,69
2022-11-03T11:20:30.444Z,69
2022-11-03T11:25:19.481Z,69
2022-11-03T11:30:25.540Z,68
2022-11-03T11:35:31.592Z,68
2022-11-03T11:40:20.651Z,67
2022-11-03T11:45:26.515Z,67
2022-11-03T11:50:32.703Z,67
2022-11-03T11:55:21.604Z,67
2022-11-03T12:00:27.738Z,68
2022-11-03T12:05:16.019Z,68
2022-11-03T12:10:22.208Z,69
2022-11-03T12:15:28.138Z,69
2022-11-03T12:20:17.366Z,68
2022-11-03T12:25:23.250Z,69
2022-11-03T12:30:29.391Z,70
2022-11-03T12:35:18.466Z,70
2022-11-03T12:40:24.472Z,70
2022-11-03T12:45:30.174Z,70
2022-11-03T12:50:19.216Z,71
2022-11-03T12:55:25.404Z,71
2022-11-03T13:00:31.319Z,72
2022-11-03T13:05:19.673Z,72
2022-11-03T13:10:25.743Z,72
2022-11-03T13:15:31.805Z,72
2022-11-03T13:20:20.958Z,73
2022-11-03T13:25:26.914Z,73
2022-11-03T13:30:15.910Z,73
2022-11-03T13:35:22.005Z,73
2022-11-03T13:40:56.309Z,74
2022-11-03T13:45:16.750Z,74
2022-11-03T13:50:23.346Z,75
2022-11-03T13:55:44.514Z,75
2022-11-03T14:00:18.121Z,76
2022-11-03T14:05:24.294Z,76
2022-11-03T14:10:30.314Z,76
2022-11-03T14:15:19.374Z,77
2022-11-03T14:20:25.543Z,77
2022-11-03T14:25:31.511Z,78
2022-11-03T14:30:20.538Z,78
2022-11-03T14:35:26.670Z,79
2022-11-03T14:40:32.649Z,79
2022-11-03T14:45:21.353Z,80
2022-11-03T14:50:27.479Z,80
2022-11-03T14:55:16.481Z,80
2022-11-03T15:00:22.759Z,81
2022-11-03T15:05:28.431Z,81
2022-11-03T15:10:17.459Z,82
2022-11-03T15:15:23.518Z,83
2022-11-03T15:20:29.578Z,83
2022-11-03T15:25:21.765Z,83
2022-11-03T15:30:24.669Z,83
2022-11-03T15:35:31.024Z,84
2022-11-03T15:40:20.594Z,85
2022-11-03T15:45:25.178Z,85
2022-11-03T15:50:31.179Z,85
2022-11-03T15:55:20.154Z,85
2022-11-03T16:00:26.415Z,85
2022-11-03T16:05:32.416Z,86
2022-11-03T16:10:21.249Z,87
2022-11-03T16:15:27.370Z,87
2022-11-03T16:20:16.541Z,87
2022-11-03T16:25:22.473Z,88
2022-11-03T16:30:28.505Z,88
2022-11-03T16:35:17.581Z,88
2022-11-03T16:40:23.750Z,89
2022-11-03T16:45:31.260Z,89
2022-11-03T16:50:17.736Z,89
2022-11-03T16:55:23.798Z,89
2022-11-03T17:00:29.959Z,89
2022-11-03T17:05:19.233Z,89
2022-11-03T17:10:25.249Z,89
2022-11-03T17:15:31.303Z,89
2022-11-03T17:20:20.431Z,89
2022-11-03T17:25:26.432Z,89
2022-11-03T17:30:32.462Z,90
2022-11-03T17:35:21.537Z,90
2022-11-03T17:40:27.757Z,90
2022-11-03T17:45:16.231Z,90
2022-11-03T17:50:22.365Z,90
2022-11-03T17:55:28.380Z,90
2022-11-03T18:00:17.550Z,90
2022-11-03T18:05:23.309Z,90
2022-11-03T18:10:29.318Z,91
2022-11-03T18:15:18.344Z,91
2022-11-03T18:20:24.487Z,91
2022-11-03T18:25:30.492Z,91
2022-11-03T18:30:19.490Z,91
2022-11-03T18:35:25.625Z,91
2022-11-03T18:40:31.851Z,91
2022-11-03T18:45:19.931Z,91
2022-11-03T18:50:26.912Z,91
2022-11-03T18:55:32.135Z,91
2022-11-03T19:00:21.188Z,91
2022-11-03T19:05:27.061Z,92
2022-11-03T19:10:15.995Z,92
2022-11-03T19:15:22.089Z,92
2022-11-03T19:20:28.195Z,92
2022-11-03T19:25:17.190Z,92
2022-11-03T19:30:23.227Z,92
2022-11-03T19:35:29.305Z,92
2022-11-03T19:40:18.403Z,92
2022-11-03T19:45:23.647Z,92
2022-11-03T19:50:29.693Z,93
2022-11-03T19:55:18.766Z,93
2022-11-03T20:00:24.900Z,92
2022-11-03T20:05:31.180Z,92
2022-11-03T20:10:20.201Z,93
2022-11-03T20:15:26.275Z,93
2022-11-03T20:20:32.326Z,93
2022-11-03T20:25:21.369Z,93
2022-11-03T20:30:27.436Z,93
2022-11-03T20:35:18.793Z,93
2022-11-03T20:40:22.567Z,93
2022-11-03T20:45:28.234Z,94
2022-11-03T20:50:17.332Z,94
2022-11-03T20:55:23.431Z,94
2022-11-03T21:00:29.444Z,94
2022-11-03T21:05:17.722Z,94
2022-11-03T21:10:23.812Z,94
2022-11-03T21:15:30.686Z,94
2022-11-03T21:20:19.055Z,94
2022-11-03T21:25:25.267Z,95
2022-11-03T21:30:31.043Z,95
2022-11-03T21:35:20.139Z,95
2022-11-03T21:40:26.142Z,95
2022-11-03T21:45:31.988Z,95
2022-11-03T21:50:20.990Z,95
2022-11-03T21:55:27.070Z,95
2022-11-03T22:00:18.597Z,95
2022-11-03T22:05:22.047Z,95
2022-11-03T22:10:28.165Z,95
2022-11-03T22:15:17.118Z,95
2022-11-03T22:20:23.286Z,95
2022-11-03T22:25:29.299Z,95
2022-11-03T22:30:18.328Z,95
2022-11-03T22:35:24.371Z,95
2022-11-03T22:40:30.399Z,95
2022-11-03T22:45:18.543Z,95
2022-11-03T22:50:24.704Z,95
2022-11-03T22:55:30.655Z,95
2022-11-03T23:00:19.752Z,95
2022-11-03T23:05:25.781Z,95
2022-11-03T23:10:31.829Z,95
2022-11-03T23:15:20.736Z,95
2022-11-03T23:20:26.849Z,96
2022-11-03T23:25:15.837Z,96
2022-11-03T23:30:21.884Z,96
2022-11-03T23:35:27.993Z,96
2022-11-03T23:40:20.357Z,96
2022-11-03T23:45:23.232Z,96
2022-11-03T23:50:29.255Z,96
2022-11-03T23:55:18.265Z,96
